Time;durP1;ratioP1;P1;durP2;ratioP2;P2;SDS_P1;SDS_P2;PMS_P1;PMS_P2;Temp;Humidity;BMP_temperature;BMP_pressure;BME280_temperature;BME280_humidity;BME280_pressure;Samples;Min_cycle;Max_cycle;Signal;HPM_P1;HPM_P2
2023/04/19 00:00:09;;;;;;;8.67;2.10;;;10.00;98.40;;;;;;5089273;28;20287;-72
2023/04/19 00:02:38;;;;;;;9.00;1.90;;;10.00;98.40;;;;;;5088151;28;20202;-72
2023/04/19 00:05:07;;;;;;;5.00;2.20;;;10.00;98.40;;;;;;5078224;28;20714;-72
2023/04/19 00:07:35;;;;;;;4.57;1.97;;;10.00;98.40;;;;;;5090346;28;20587;-70
2023/04/19 00:10:02;;;;;;;7.47;2.00;;;10.10;98.30;;;;;;5084745;28;20590;-72
2023/04/19 00:12:29;;;;;;;3.30;1.73;;;10.00;98.20;;;;;;5071490;28;20230;-72
2023/04/19 00:14:57;;;;;;;5.47;1.90;;;10.00;98.20;;;;;;5069489;28;20217;-71
2023/04/19 00:17:24;;;;;;;4.00;2.00;;;10.00;98.20;;;;;;5079838;28;20612;-70
2023/04/19 00:19:51;;;;;;;8.63;2.50;;;10.00;98.20;;;;;;5086862;28;20226;-70
2023/04/19 00:22:20;;;;;;;5.97;1.97;;;10.00;98.20;;;;;;5072785;28;20198;-70
2023/04/19 00:24:47;;;;;;;8.60;2.33;;;10.00;98.20;;;;;;5063526;28;20283;-71
2023/04/19 00:27:14;;;;;;;8.37;2.20;;;10.10;98.30;;;;;;5089441;28;20223;-71
2023/04/19 00:29:42;;;;;;;5.13;2.23;;;10.10;98.30;;;;;;5092231;28;20199;-71
2023/04/19 00:32:09;;;;;;;7.83;2.03;;;10.10;98.30;;;;;;5081556;28;20215;-71
2023/04/19 00:34:37;;;;;;;4.70;2.17;;;10.10;98.30;;;;;;5093877;28;20273;-71
2023/04/19 00:37:04;;;;;;;6.90;2.40;;;10.10;98.20;;;;;;5069542;28;20327;-70
2023/04/19 00:39:34;;;;;;;12.87;2.30;;;10.00;98.10;;;;;;5059209;28;20207;-70
2023/04/19 00:42:01;;;;;;;5.17;1.80;;;10.00;98.10;;;;;;5068344;28;20591;-70
2023/04/19 00:44:28;;;;;;;4.43;1.90;;;10.00;98.10;;;;;;5073204;28;20218;-71
2023/04/19 00:46:56;;;;;;;10.13;2.27;;;10.00;98.10;;;;;;5072392;28;20280;-72
2023/04/19 00:49:26;;;;;;;3.20;2.20;;;10.00;98.10;;;;;;5097496;28;20681;-71
2023/04/19 00:51:54;;;;;;;4.17;2.03;;;10.00;98.20;;;;;;5065705;28;20238;-70
2023/04/19 00:54:21;;;;;;;3.93;2.10;;;10.00;98.20;;;;;;5067890;28;20203;-70
2023/04/19 00:56:51;;;;;;;4.83;2.23;;;10.00;98.20;;;;;;5063200;28;20256;-71
2023/04/19 00:59:19;;;;;;;4.83;2.00;;;9.90;98.70;;;;;;5081334;28;20614;-71
2023/04/19 01:01:46;;;;;;;7.80;1.97;;;10.00;98.30;;;;;;5065929;28;20572;-71
2023/04/19 01:04:13;;;;;;;7.63;2.47;;;10.00;98.30;;;;;;5061429;28;20200;-71
2023/04/19 01:06:41;;;;;;;4.47;1.90;;;10.00;98.30;;;;;;5063624;28;20707;-71
2023/04/19 01:09:11;;;;;;;9.20;2.40;;;10.00;98.30;;;;;;5068786;28;20306;-71
2023/04/19 01:11:41;;;;;;;14.53;2.40;;;10.00;98.30;;;;;;5059227;28;20282;-73
2023/04/19 01:14:09;;;;;;;6.67;2.13;;;10.00;98.30;;;;;;5089670;28;20203;-70
2023/04/19 01:16:37;;;;;;;7.00;2.03;;;10.00;98.30;;;;;;5070769;28;20233;-71
2023/04/19 01:19:05;;;;;;;2.90;1.70;;;10.00;98.30;;;;;;5063082;28;20203;-71
2023/04/19 01:21:32;;;;;;;5.73;2.00;;;10.00;98.30;;;;;;5070189;28;20197;-72
2023/04/19 01:24:00;;;;;;;4.97;2.40;;;10.00;98.30;;;;;;5066701;28;20214;-72
2023/04/19 01:26:31;;;;;;;6.57;2.30;;;10.00;98.30;;;;;;5057767;28;20243;-72
2023/04/19 01:28:58;;;;;;;4.57;2.17;;;10.00;98.30;;;;;;5088340;28;20191;-72
2023/04/19 01:31:25;;;;;;;4.23;1.80;;;10.00;98.20;;;;;;5081768;28;20208;-72
2023/04/19 01:33:52;;;;;;;8.30;2.43;;;9.90;98.80;;;;;;5054481;28;20318;-72
2023/04/19 01:36:19;;;;;;;5.73;2.10;;;10.00;98.30;;;;;;5090993;28;20225;-71
2023/04/19 01:38:47;;;;;;;5.67;2.40;;;9.90;98.70;;;;;;5069132;28;20215;-72
2023/04/19 01:41:15;;;;;;;5.30;2.13;;;10.00;98.20;;;;;;5067498;28;20220;-72
2023/04/19 01:43:43;;;;;;;5.53;2.10;;;9.90;98.70;;;;;;5054848;28;20238;-71
2023/04/19 01:46:10;;;;;;;7.73;2.10;;;9.90;98.70;;;;;;5080555;28;20206;-71
2023/04/19 01:48:38;;;;;;;1.93;1.43;;;9.90;98.80;;;;;;5088121;28;20239;-71
2023/04/19 01:51:05;;;;;;;4.13;2.10;;;9.90;98.70;;;;;;5070380;28;20202;-72
2023/04/19 01:53:35;;;;;;;4.03;1.80;;;9.90;98.80;;;;;;5066446;28;20303;-71
2023/04/19 01:56:02;;;;;;;2.23;1.50;;;9.90;98.80;;;;;;5074152;28;20217;-72
2023/04/19 01:58:30;;;;;;;2.33;1.53;;;9.90;98.80;;;;;;5083961;28;20331;-71
2023/04/19 02:00:57;;;;;;;1.30;1.20;;;9.80;98.80;;;;;;5068037;28;20208;-71
2023/04/19 02:03:25;;;;;;;4.07;1.67;;;9.80;98.90;;;;;;5072566;28;20681;-71
2023/04/19 02:05:54;;;;;;;5.53;1.70;;;9.80;98.90;;;;;;5086449;28;20208;-71
2023/04/19 02:08:22;;;;;;;1.30;1.20;;;9.80;98.90;;;;;;5071353;28;20224;-71
2023/04/19 02:10:49;;;;;;;6.83;2.10;;;9.80;98.90;;;;;;5090511;28;20211;-72
2023/04/19 02:13:17;;;;;;;1.87;1.30;;;9.80;98.80;;;;;;5069477;28;20704;-71
2023/04/19 02:15:46;;;;;;;1.90;1.40;;;9.80;98.80;;;;;;5074972;28;20288;-72
2023/04/19 02:18:13;;;;;;;9.43;1.83;;;9.80;98.80;;;;;;5066967;28;20211;-71
2023/04/19 02:20:40;;;;;;;1.40;1.30;;;9.80;98.80;;;;;;5068708;28;20198;-72
2023/04/19 02:23:07;;;;;;;1.83;1.67;;;9.90;98.70;;;;;;5086367;28;20212;-70
2023/04/19 02:25:34;;;;;;;3.70;1.53;;;9.90;98.70;;;;;;5064355;28;20299;-71
2023/04/19 02:28:03;;;;;;;2.93;1.50;;;9.90;98.70;;;;;;5068347;28;20212;-71
2023/04/19 02:30:30;;;;;;;2.10;1.47;;;9.80;98.60;;;;;;5093274;28;20192;-71
2023/04/19 02:32:59;;;;;;;3.83;2.00;;;9.80;98.60;;;;;;5069984;28;20220;-71
2023/04/19 02:35:26;;;;;;;3.57;1.70;;;9.80;98.60;;;;;;5078531;28;20184;-71
2023/04/19 02:37:53;;;;;;;3.73;1.83;;;9.80;98.60;;;;;;5089194;28;20194;-70
2023/04/19 02:40:21;;;;;;;4.77;1.97;;;9.80;98.50;;;;;;5064864;28;20197;-71
2023/04/19 02:42:48;;;;;;;2.93;1.70;;;9.80;98.50;;;;;;5091691;28;20201;-72
2023/04/19 02:45:16;;;;;;;5.80;2.10;;;9.80;98.60;;;;;;5085783;28;20193;-72
2023/04/19 02:47:45;;;;;;;4.13;2.07;;;9.80;98.50;;;;;;5085392;28;20745;-71
2023/04/19 02:50:16;;;;;;;4.40;1.83;;;9.80;98.50;;;;;;5081221;28;20252;-71
2023/04/19 02:52:48;;;;;;;4.60;2.00;;;9.80;98.50;;;;;;5089675;28;20355;-70
2023/04/19 02:55:18;;;;;;;4.43;2.10;;;9.80;98.60;;;;;;5083122;28;20216;-71
2023/04/19 02:57:47;;;;;;;2.67;1.73;;;9.80;98.60;;;;;;5070788;28;20211;-71
2023/04/19 03:00:16;;;;;;;6.00;2.50;;;9.80;98.60;;;;;;5085071;28;20197;-71
2023/04/19 03:02:51;;;;;;;3.33;1.90;;;9.80;98.50;;;;;;5064900;28;20196;-71
2023/04/19 03:05:20;;;;;;;4.00;2.07;;;9.80;98.40;;;;;;5067721;28;20247;-71
2023/04/19 03:07:47;;;;;;;7.10;2.67;;;9.80;98.40;;;;;;5073574;28;20232;-72
2023/04/19 03:10:15;;;;;;;4.13;2.10;;;9.80;98.40;;;;;;5073612;28;20208;-71
2023/04/19 03:12:42;;;;;;;2.47;1.50;;;9.80;98.40;;;;;;5074441;28;20319;-70
2023/04/19 03:15:13;;;;;;;6.90;2.37;;;9.90;98.40;;;;;;5065521;28;20304;-71
2023/04/19 03:17:40;;;;;;;1.50;1.40;;;9.80;98.30;;;;;;5068298;28;20201;-72
2023/04/19 03:20:10;;;;;;;7.27;2.07;;;9.80;98.40;;;;;;5059800;28;20207;-71
2023/04/19 03:22:39;;;;;;;5.33;2.20;;;9.80;98.40;;;;;;5055249;28;20267;-72
2023/04/19 03:25:07;;;;;;;7.67;2.80;;;9.80;98.20;;;;;;5069825;28;20197;-71
2023/04/19 03:27:36;;;;;;;6.30;2.67;;;9.80;98.20;;;;;;5073570;28;20209;-71
2023/04/19 03:30:08;;;;;;;13.30;2.47;;;9.80;98.20;;;;;;5081750;28;20218;-70
2023/04/19 03:32:35;;;;;;;12.57;3.13;;;9.80;98.50;;;;;;5066983;28;20307;-71
2023/04/19 03:35:03;;;;;;;7.63;3.00;;;9.80;98.10;;;;;;5071433;28;20238;-71
2023/04/19 03:37:31;;;;;;;2.93;2.30;;;9.80;98.10;;;;;;5067535;28;20680;-70
2023/04/19 03:39:59;;;;;;;6.37;2.53;;;9.80;98.10;;;;;;5075793;28;20599;-72
2023/04/19 03:42:36;;;;;;;3.27;2.10;;;9.80;98.10;;;;;;5068858;28;20627;-71
2023/04/19 03:45:11;;;;;;;6.07;2.10;;;9.80;98.20;;;;;;5055307;28;20195;-72
2023/04/19 03:47:44;;;;;;;4.93;2.27;;;9.80;98.20;;;;;;5074562;28;20185;-72
2023/04/19 03:50:12;;;;;;;2.70;2.00;;;9.70;98.20;;;;;;5085428;28;20246;-71
2023/04/19 03:52:42;;;;;;;3.67;2.07;;;9.70;98.10;;;;;;5062203;28;20220;-71
2023/04/19 03:55:13;;;;;;;5.13;1.90;;;9.70;98.10;;;;;;5064104;28;20239;-71
2023/04/19 03:57:41;;;;;;;2.13;1.77;;;9.70;98.20;;;;;;5090311;28;20289;-71
2023/04/19 04:00:18;;;;;;;4.00;1.90;;;9.70;98.20;;;;;;5065707;28;20302;-71
2023/04/19 04:02:54;;;;;;;3.80;2.10;;;9.70;98.20;;;;;;5068609;28;20199;-72
2023/04/19 04:05:22;;;;;;;2.57;1.60;;;9.70;98.20;;;;;;5066102;28;20522;-72
2023/04/19 04:07:50;;;;;;;1.90;1.63;;;9.70;98.10;;;;;;5062940;28;20227;-72
2023/04/19 04:10:20;;;;;;;3.13;1.93;;;9.90;98.20;;;;;;5079783;28;20201;-71
2023/04/19 04:12:48;;;;;;;3.83;2.07;;;9.80;98.10;;;;;;5060416;28;20201;-71
2023/04/19 04:15:21;;;;;;;2.13;1.40;;;9.80;98.00;;;;;;5070033;28;20197;-71
2023/04/19 04:17:53;;;;;;;3.17;1.70;;;9.80;98.00;;;;;;5070927;28;20245;-71
2023/04/19 04:20:21;;;;;;;3.43;1.67;;;9.90;98.00;;;;;;5068477;28;20211;-73
2023/04/19 04:22:50;;;;;;;5.17;2.10;;;9.90;97.90;;;;;;5070408;28;20622;-72
2023/04/19 04:25:23;;;;;;;3.67;2.40;;;9.90;97.90;;;;;;5081686;28;20211;-71
2023/04/19 04:27:51;;;;;;;6.27;2.17;;;9.90;97.70;;;;;;5067324;28;20223;-71
2023/04/19 04:30:20;;;;;;;2.70;1.70;;;9.80;97.60;;;;;;5072393;28;20198;-71
2023/04/19 04:32:50;;;;;;;1.70;1.60;;;9.80;97.60;;;;;;5065649;28;20310;-72
2023/04/19 04:35:21;;;;;;;4.80;1.83;;;9.80;97.50;;;;;;5071290;28;20258;-72
2023/04/19 04:37:56;;;;;;;5.90;2.47;;;9.80;97.40;;;;;;5070692;28;20665;-72
2023/04/19 04:40:24;;;;;;;2.87;1.50;;;9.80;97.40;;;;;;5064536;28;20672;-72
2023/04/19 04:42:53;;;;;;;4.57;2.00;;;9.80;97.40;;;;;;5071034;28;20213;-72
2023/04/19 04:45:21;;;;;;;5.83;1.83;;;9.90;97.50;;;;;;5070871;28;20205;-71
2023/04/19 04:47:50;;;;;;;7.07;2.00;;;9.90;97.40;;;;;;5066473;28;20309;-71
2023/04/19 04:50:18;;;;;;;4.30;2.00;;;9.90;97.40;;;;;;5065575;28;20280;-72
2023/04/19 04:52:45;;;;;;;4.50;2.37;;;9.90;97.30;;;;;;5066574;28;20273;-72
2023/04/19 04:55:28;;;;;;;3.07;1.80;;;10.00;96.90;;;;;;5070321;28;20651;-70
2023/04/19 04:57:55;;;;;;;4.97;1.93;;;9.90;97.30;;;;;;5071346;28;20199;-71
2023/04/19 05:00:30;;;;;;;3.90;1.80;;;9.90;97.30;;;;;;5065636;28;20232;-71
2023/04/19 05:03:04;;;;;;;5.13;1.80;;;9.90;97.30;;;;;;5069687;28;20317;-71
2023/04/19 05:05:37;;;;;;;2.57;1.80;;;9.90;97.30;;;;;;5077804;28;20215;-71
2023/04/19 05:08:05;;;;;;;3.53;1.90;;;9.90;97.40;;;;;;5063967;28;20233;-71
2023/04/19 05:10:34;;;;;;;4.57;2.00;;;9.90;97.40;;;;;;5070476;28;20207;-70
2023/04/19 05:13:01;;;;;;;6.20;2.30;;;9.90;97.50;;;;;;5079903;28;20216;-71
2023/04/19 05:15:30;;;;;;;2.70;1.90;;;9.90;97.50;;;;;;5066077;28;20211;-70
2023/04/19 05:17:57;;;;;;;2.77;1.60;;;9.90;97.50;;;;;;5068918;28;20207;-70
2023/04/19 05:20:25;;;;;;;3.13;1.60;;;9.90;97.50;;;;;;5066854;28;20605;-71
2023/04/19 05:23:04;;;;;;;3.30;1.83;;;9.90;97.50;;;;;;5071582;28;20290;-71
2023/04/19 05:25:35;;;;;;;2.83;1.67;;;9.90;97.40;;;;;;5074614;28;20234;-71
2023/04/19 05:28:03;;;;;;;5.23;2.00;;;9.90;97.40;;;;;;5068444;28;20661;-71
2023/04/19 05:30:37;;;;;;;4.20;2.07;;;10.00;96.80;;;;;;5074432;28;20250;-70
2023/04/19 05:33:06;;;;;;;4.90;2.00;;;9.90;97.10;;;;;;5082194;28;20246;-71
2023/04/19 05:35:33;;;;;;;5.13;2.07;;;9.90;97.00;;;;;;5076365;28;20541;-72
2023/04/19 05:38:01;;;;;;;6.90;2.40;;;10.00;96.50;;;;;;5075714;28;20209;-72
2023/04/19 05:40:29;;;;;;;7.13;1.73;;;10.00;96.40;;;;;;5069670;28;20414;-72
2023/04/19 05:42:57;;;;;;;3.17;1.93;;;10.00;96.30;;;;;;5074475;28;20283;-72
2023/04/19 05:45:26;;;;;;;3.83;1.70;;;10.00;96.20;;;;;;5073481;28;20651;-70
2023/04/19 05:47:53;;;;;;;5.37;2.10;;;10.00;96.20;;;;;;5086074;28;20192;-70
2023/04/19 05:50:43;;;;;;;10.47;2.10;;;10.00;96.10;;;;;;5089401;28;20200;-72
2023/04/19 05:53:30;;;;;;;9.53;2.43;;;10.10;96.00;;;;;;5060306;28;20616;-71
2023/04/19 05:55:58;;;;;;;8.27;2.30;;;10.10;95.80;;;;;;5060675;28;20208;-71
2023/04/19 05:58:27;;;;;;;2.93;1.60;;;10.10;95.70;;;;;;5065910;28;20228;-71
2023/04/19 06:00:54;;;;;;;9.57;2.03;;;10.10;95.70;;;;;;5068915;28;20237;-71
2023/04/19 06:03:23;;;;;;;4.03;1.83;;;10.20;95.70;;;;;;5066436;28;20544;-71
2023/04/19 06:05:50;;;;;;;8.13;2.03;;;10.20;95.50;;;;;;5072867;28;20219;-71
2023/04/19 06:08:18;;;;;;;3.93;2.07;;;10.20;95.40;;;;;;5066025;28;20459;-70
2023/04/19 06:10:48;;;;;;;4.83;1.90;;;10.30;95.30;;;;;;5082592;28;20273;-71
2023/04/19 06:13:17;;;;;;;4.90;2.20;;;10.20;95.10;;;;;;5071089;28;20217;-70
2023/04/19 06:15:47;;;;;;;18.60;2.93;;;10.30;95.10;;;;;;5064611;28;20195;-71
2023/04/19 06:18:15;;;;;;;13.03;2.63;;;10.20;94.80;;;;;;5076836;28;20227;-71
2023/04/19 06:20:42;;;;;;;6.03;2.10;;;10.30;94.90;;;;;;5083576;28;20577;-71
2023/04/19 06:23:11;;;;;;;5.03;2.33;;;10.30;94.90;;;;;;5076648;28;20211;-71
2023/04/19 06:25:41;;;;;;;7.90;2.80;;;10.30;94.80;;;;;;5054404;28;20196;-71
2023/04/19 06:28:08;;;;;;;8.20;2.40;;;10.40;94.80;;;;;;5081687;28;20220;-71
2023/04/19 06:30:36;;;;;;;8.30;2.60;;;10.40;94.60;;;;;;5056100;28;20201;-71
2023/04/19 06:33:07;;;;;;;11.70;3.03;;;10.40;94.60;;;;;;5088138;28;20818;-71
2023/04/19 06:35:36;;;;;;;11.47;2.50;;;10.40;94.60;;;;;;5073290;28;20659;-71
2023/04/19 06:38:03;;;;;;;5.57;1.70;;;10.30;94.50;;;;;;5085536;28;20535;-70
2023/04/19 06:40:30;;;;;;;6.33;2.40;;;10.30;94.60;;;;;;5065176;28;20205;-71
2023/04/19 06:42:57;;;;;;;3.50;2.20;;;10.40;94.50;;;;;;5084566;28;20609;-71
2023/04/19 06:45:25;;;;;;;7.63;2.50;;;10.30;94.40;;;;;;5085782;28;20187;-70
2023/04/19 06:47:55;;;;;;;11.50;3.67;;;10.30;94.40;;;;;;5072191;28;20191;-70
2023/04/19 06:50:24;;;;;;;6.90;3.00;;;10.30;94.30;;;;;;5063479;28;20209;-71
2023/04/19 06:52:53;;;;;;;7.10;2.73;;;10.30;94.30;;;;;;5064863;28;20242;-71
2023/04/19 06:55:21;;;;;;;8.60;3.50;;;10.30;94.30;;;;;;5065234;28;20610;-71
2023/04/19 06:57:48;;;;;;;15.50;3.70;;;10.30;94.30;;;;;;5081059;28;20196;-71
2023/04/19 07:00:16;;;;;;;5.73;2.87;;;10.30;94.30;;;;;;5083114;28;20207;-71
2023/04/19 07:02:43;;;;;;;10.70;4.67;;;10.30;94.30;;;;;;5072501;28;20206;-71
2023/04/19 07:05:11;;;;;;;12.27;6.17;;;10.40;94.40;;;;;;5089274;28;20204;-71
2023/04/19 07:07:40;;;;;;;14.27;6.87;;;10.40;94.30;;;;;;5073477;28;20237;-70
2023/04/19 07:10:09;;;;;;;7.13;5.47;;;10.40;94.30;;;;;;5070509;28;20301;-71
2023/04/19 07:12:39;;;;;;;6.27;4.07;;;10.50;94.20;;;;;;5090633;28;20237;-71
2023/04/19 07:15:07;;;;;;;4.30;2.77;;;10.50;94.00;;;;;;5076640;28;20206;-71
2023/04/19 07:17:36;;;;;;;7.37;2.37;;;10.50;93.90;;;;;;5093436;28;20193;-71
2023/04/19 07:20:07;;;;;;;10.30;2.50;;;10.60;93.90;;;;;;5089174;28;20207;-71
2023/04/19 07:22:34;;;;;;;7.33;2.30;;;10.70;93.80;;;;;;5058963;28;20246;-71
2023/04/19 07:25:08;;;;;;;5.97;2.07;;;10.70;93.60;;;;;;5068768;28;20294;-71
2023/04/19 07:27:37;;;;;;;5.13;2.17;;;10.90;93.60;;;;;;5065352;28;20200;-71
2023/04/19 07:30:05;;;;;;;6.63;2.30;;;10.90;93.40;;;;;;5061796;28;20211;-72
2023/04/19 07:32:32;;;;;;;7.60;2.40;;;11.00;93.20;;;;;;5068695;28;20212;-71
2023/04/19 07:34:59;;;;;;;16.00;2.30;;;11.10;92.90;;;;;;5081903;28;20208;-71
2023/04/19 07:37:27;;;;;;;6.97;1.70;;;11.10;93.10;;;;;;5066929;28;20807;-71
2023/04/19 07:39:54;;;;;;;12.13;2.33;;;11.20;92.80;;;;;;5101664;28;20578;-71
2023/04/19 07:42:22;;;;;;;12.80;2.40;;;11.30;92.50;;;;;;5081612;28;20216;-71
2023/04/19 07:44:51;;;;;;;3.87;2.10;;;11.30;92.30;;;;;;5083268;28;20243;-71
2023/04/19 07:47:19;;;;;;;5.60;2.07;;;11.30;92.40;;;;;;5079503;28;20207;-71
2023/04/19 07:49:46;;;;;;;17.37;3.17;;;11.30;92.20;;;;;;5068060;28;20200;-72
2023/04/19 07:52:13;;;;;;;8.63;2.33;;;11.30;92.00;;;;;;5080056;28;20345;-72
2023/04/19 07:54:40;;;;;;;6.27;2.17;;;11.30;92.10;;;;;;5069089;28;20310;-71
2023/04/19 07:57:07;;;;;;;6.03;2.53;;;11.30;92.10;;;;;;5061098;28;20212;-71
2023/04/19 07:59:36;;;;;;;4.77;2.17;;;11.40;92.10;;;;;;5081121;28;20196;-71
2023/04/19 08:02:03;;;;;;;8.20;2.47;;;11.40;92.10;;;;;;5076920;28;20198;-72
2023/04/19 08:04:36;;;;;;;8.17;2.33;;;11.50;92.00;;;;;;5065195;28;20212;-73
2023/04/19 08:07:03;;;;;;;13.50;2.93;;;11.40;91.80;;;;;;5064465;28;20236;-72
2023/04/19 08:09:30;;;;;;;7.57;2.63;;;11.40;91.80;;;;;;5078056;28;20203;-71
2023/04/19 08:11:58;;;;;;;8.07;1.93;;;11.30;91.70;;;;;;5061810;28;20869;-72
2023/04/19 08:14:27;;;;;;;13.73;2.30;;;11.20;91.80;;;;;;5061713;28;20221;-71
2023/04/19 08:16:55;;;;;;;11.23;2.30;;;11.20;91.80;;;;;;5079742;28;20198;-71
2023/04/19 08:19:22;;;;;;;3.37;2.10;;;11.10;92.00;;;;;;5064938;28;20250;-72
2023/04/19 08:21:50;;;;;;;6.00;2.30;;;11.00;92.10;;;;;;5065045;28;20199;-71
2023/04/19 08:24:17;;;;;;;3.80;1.80;;;10.90;92.10;;;;;;5081939;28;20482;-71
2023/04/19 08:26:52;;;;;;;3.10;2.27;;;10.90;92.10;;;;;;5084609;28;20644;-72
2023/04/19 08:29:22;;;;;;;7.07;2.47;;;10.80;92.30;;;;;;5064564;28;20215;-72
2023/04/19 08:31:49;;;;;;;5.67;2.00;;;10.80;92.40;;;;;;5084720;28;20197;-72
2023/04/19 08:34:17;;;;;;;2.30;1.50;;;10.70;92.40;;;;;;5069414;28;20304;-71
2023/04/19 08:36:45;;;;;;;9.23;2.33;;;10.70;92.60;;;;;;5063266;28;20194;-71
2023/04/19 08:39:12;;;;;;;6.07;1.80;;;10.70;92.60;;;;;;5088915;28;20267;-71
2023/04/19 08:41:40;;;;;;;4.77;2.17;;;10.60;92.50;;;;;;5090810;28;20284;-71
2023/04/19 08:44:10;;;;;;;8.10;2.03;;;10.60;92.70;;;;;;5078125;28;20296;-72
2023/04/19 08:46:37;;;;;;;5.77;2.20;;;10.50;93.00;;;;;;5088086;28;20210;-72
2023/04/19 08:49:06;;;;;;;4.20;2.10;;;10.50;93.30;;;;;;5062017;28;20206;-71
2023/04/19 08:51:35;;;;;;;5.07;2.00;;;10.40;93.40;;;;;;5083937;28;20207;-72
2023/04/19 08:54:06;;;;;;;6.83;2.03;;;10.40;93.60;;;;;;5087961;28;20223;-72
2023/04/19 08:56:33;;;;;;;2.53;2.10;;;10.30;93.80;;;;;;5061803;28;20198;-71
2023/04/19 08:59:00;;;;;;;4.80;2.00;;;10.30;93.90;;;;;;5069060;28;20701;-72
2023/04/19 09:01:28;;;;;;;5.83;2.10;;;10.30;94.20;;;;;;5069038;28;20265;-71
2023/04/19 09:03:55;;;;;;;5.53;1.80;;;10.30;94.40;;;;;;5080570;28;20196;-71
2023/04/19 09:06:26;;;;;;;3.37;1.70;;;10.30;94.40;;;;;;5064921;28;20241;-71
2023/04/19 09:09:15;;;;;;;2.23;1.90;;;10.30;94.50;;;;;;5074937;28;20192;-71
2023/04/19 09:11:45;;;;;;;1.63;1.30;;;10.30;94.50;;;;;;5085569;28;20195;-71
2023/04/19 09:14:14;;;;;;;4.80;2.07;;;10.30;94.60;;;;;;5088532;28;20274;-72
2023/04/19 09:16:41;;;;;;;2.70;1.90;;;10.30;94.80;;;;;;5081002;28;20215;-71
2023/04/19 09:19:11;;;;;;;9.40;2.20;;;10.30;94.90;;;;;;5068193;28;20204;-71
2023/04/19 09:21:52;;;;;;;3.60;2.10;;;10.30;94.90;;;;;;5080951;28;20197;-72
2023/04/19 09:24:37;;;;;;;2.57;1.80;;;10.20;94.90;;;;;;5079993;28;20196;-72
2023/04/19 09:27:05;;;;;;;3.37;2.10;;;10.20;95.00;;;;;;5084305;28;20197;-71
2023/04/19 09:29:32;;;;;;;4.23;1.80;;;10.20;95.30;;;;;;5065418;28;20323;-71
2023/04/19 09:31:59;;;;;;;3.47;1.87;;;10.10;95.30;;;;;;5055383;28;20579;-71
2023/04/19 09:34:29;;;;;;;3.10;1.93;;;10.10;95.50;;;;;;5066745;28;20212;-72
2023/04/19 09:36:56;;;;;;;3.33;1.67;;;10.10;95.80;;;;;;5080620;28;20222;-71
2023/04/19 09:39:32;;;;;;;5.07;2.60;;;10.00;95.90;;;;;;5069700;28;20218;-71
2023/04/19 09:42:00;;;;;;;5.07;2.33;;;10.00;96.40;;;;;;5083510;28;21008;-71
2023/04/19 09:44:27;;;;;;;3.00;1.70;;;9.90;97.10;;;;;;5071434;28;20677;-72
2023/04/19 09:46:54;;;;;;;4.03;2.37;;;9.90;97.30;;;;;;5066334;28;20208;-72
2023/04/19 09:49:26;;;;;;;3.63;1.93;;;9.80;97.50;;;;;;5083695;28;20202;-72
2023/04/19 09:52:17;;;;;;;6.27;2.27;;;9.80;97.60;;;;;;5073151;28;20229;-72
2023/04/19 09:54:47;;;;;;;4.97;2.27;;;9.70;97.80;;;;;;5087677;28;20205;-71
2023/04/19 09:57:16;;;;;;;4.83;2.10;;;9.70;97.90;;;;;;5076583;28;20250;-71
2023/04/19 09:59:43;;;;;;;3.87;2.13;;;9.70;98.50;;;;;;5064332;28;20306;-72
2023/04/19 10:02:15;;;;;;;3.47;2.37;;;9.60;98.30;;;;;;5085662;28;20282;-71
2023/04/19 10:04:42;;;;;;;4.47;2.10;;;9.60;98.50;;;;;;5077909;28;20638;-71
2023/04/19 10:07:10;;;;;;;2.80;1.90;;;9.50;98.60;;;;;;5064922;28;20255;-71
2023/04/19 10:09:38;;;;;;;4.23;1.90;;;9.50;98.80;;;;;;5076929;28;20224;-71
2023/04/19 10:12:07;;;;;;;3.50;2.10;;;9.50;99.00;;;;;;5072525;28;21211;-71
2023/04/19 10:14:36;;;;;;;5.93;2.30;;;9.50;99.30;;;;;;5089357;28;20222;-70
2023/04/19 10:17:03;;;;;;;5.43;2.37;;;9.50;99.50;;;;;;5062639;28;20205;-71
2023/04/19 10:19:34;;;;;;;5.27;1.97;;;9.50;99.60;;;;;;5070537;28;20204;-76
2023/04/19 10:22:04;;;;;;;5.67;2.47;;;9.50;99.80;;;;;;5084099;28;20187;-71
2023/04/19 10:24:31;;;;;;;5.13;2.80;;;9.40;99.90;;;;;;5069534;28;20281;-70
2023/04/19 10:27:15;;;;;;;11.43;2.73;;;9.40;99.90;;;;;;5091948;28;20212;-71
2023/04/19 10:29:58;;;;;;;4.63;3.03;;;9.40;99.90;;;;;;5080484;28;20212;-71
2023/04/19 10:32:30;;;;;;;7.67;3.00;;;9.30;99.90;;;;;;5065780;28;20225;-71
2023/04/19 10:35:02;;;;;;;4.93;2.57;;;9.20;99.90;;;;;;5091701;28;20211;-72
2023/04/19 10:37:34;;;;;;;7.07;3.20;;;9.20;99.90;;;;;;5083782;28;20203;-71
2023/04/19 10:40:02;;;;;;;8.23;2.93;;;9.20;99.90;;;;;;5089962;28;21000;-71
2023/04/19 10:43:21;;;;;;;5.23;2.77;;;9.10;99.90;;;;;;5071633;28;20211;-70
2023/04/19 10:45:50;;;;;;;7.60;2.70;;;9.10;99.90;;;;;;4989012;28;20682;-71
2023/04/19 10:48:37;;;;;;;4.83;2.47;;;9.10;99.90;;;;;;4978195;28;20254;-71
2023/04/19 10:51:13;;;;;;;3.83;2.70;;;9.00;99.90;;;;;;5038476;28;20207;-71
2023/04/19 10:53:54;;;;;;;3.50;2.37;;;9.00;99.90;;;;;;5083344;28;20199;-72
2023/04/19 10:56:43;;;;;;;12.57;3.13;;;9.00;99.90;;;;;;5089459;28;20689;-71
2023/04/19 10:59:21;;;;;;;7.03;3.00;;;9.10;99.90;;;;;;5087369;28;20269;-71
2023/04/19 11:01:52;;;;;;;4.97;2.57;;;9.10;99.90;;;;;;5090547;28;20240;-71
2023/04/19 11:04:21;;;;;;;9.23;3.17;;;9.10;99.90;;;;;;5081685;28;20193;-71
2023/04/19 11:07:01;;;;;;;6.40;2.27;;;9.10;99.90;;;;;;5078286;28;20237;-71
2023/04/19 11:09:33;;;;;;;5.80;2.90;;;9.20;99.90;;;;;;5069126;28;20227;-71
2023/04/19 11:12:02;;;;;;;4.63;2.40;;;9.30;99.90;;;;;;5069181;28;20193;-72
2023/04/19 11:14:35;;;;;;;1.97;1.80;;;9.30;99.90;;;;;;5081205;28;20218;-71
2023/04/19 11:17:15;;;;;;;5.43;2.67;;;9.30;99.90;;;;;;5061877;28;20212;-72
2023/04/19 11:19:44;;;;;;;5.70;2.50;;;9.40;99.90;;;;;;5089378;28;20642;-72
2023/04/19 11:22:13;;;;;;;2.40;2.20;;;9.40;99.90;;;;;;5077523;28;20202;-71
2023/04/19 11:24:48;;;;;;;4.03;2.40;;;9.50;99.90;;;;;;5061992;28;20199;-72
2023/04/19 11:27:15;;;;;;;3.20;2.03;;;9.50;99.90;;;;;;5068570;28;20260;-73
2023/04/19 11:29:42;;;;;;;6.00;2.20;;;9.60;99.90;;;;;;5088817;28;20211;-71
2023/04/19 11:32:11;;;;;;;3.20;2.10;;;9.60;99.90;;;;;;5086229;28;20223;-71
2023/04/19 11:34:39;;;;;;;3.43;1.93;;;9.70;99.90;;;;;;5075922;28;20311;-72
2023/04/19 11:37:06;;;;;;;4.10;2.47;;;9.70;99.90;;;;;;5072426;28;20678;-72
2023/04/19 11:39:33;;;;;;;2.47;2.00;;;9.80;99.90;;;;;;5077288;28;20254;-72
2023/04/19 11:42:01;;;;;;;2.13;1.93;;;9.80;99.90;;;;;;5082713;28;20201;-72
2023/04/19 11:44:28;;;;;;;1.47;1.37;;;9.80;99.90;;;;;;5055665;28;20294;-71
2023/04/19 11:46:59;;;;;;;1.77;1.60;;;9.90;99.90;;;;;;5066799;28;20196;-72
2023/04/19 11:49:29;;;;;;;6.43;1.63;;;10.00;99.90;;;;;;5082954;28;20663;-72
2023/04/19 11:52:00;;;;;;;4.30;1.70;;;10.00;99.90;;;;;;5073843;28;20809;-72
2023/04/19 11:54:28;;;;;;;1.93;1.60;;;10.10;99.90;;;;;;5067785;28;20683;-71
2023/04/19 11:57:05;;;;;;;2.67;1.73;;;10.10;99.90;;;;;;5060205;28;20192;-71
2023/04/19 11:59:34;;;;;;;2.17;1.90;;;10.10;99.90;;;;;;5072166;28;20540;-71
2023/04/19 12:02:09;;;;;;;2.63;1.70;;;10.20;99.90;;;;;;5061739;28;20222;-72
2023/04/19 12:04:38;;;;;;;6.73;2.40;;;10.30;99.90;;;;;;5066381;28;20669;-71
2023/04/19 12:07:06;;;;;;;3.67;1.63;;;10.40;99.90;;;;;;5082204;28;20239;-71
2023/04/19 12:09:35;;;;;;;2.67;1.90;;;10.50;99.90;;;;;;5071236;28;20204;-72
2023/04/19 12:12:03;;;;;;;2.33;1.63;;;10.50;99.90;;;;;;5074546;28;20288;-72
2023/04/19 12:14:33;;;;;;;6.23;1.90;;;10.60;99.90;;;;;;5065837;28;20205;-71
2023/04/19 12:17:14;;;;;;;2.00;1.73;;;10.70;99.90;;;;;;5084588;28;20205;-71
2023/04/19 12:19:47;;;;;;;3.07;1.97;;;10.80;99.90;;;;;;5079633;28;20201;-72
2023/04/19 12:22:25;;;;;;;3.93;2.00;;;10.90;99.90;;;;;;5061855;28;20287;-72
2023/04/19 12:24:56;;;;;;;3.83;1.90;;;10.90;99.90;;;;;;5065970;28;20257;-72
2023/04/19 12:27:24;;;;;;;2.50;1.80;;;11.00;99.90;;;;;;5071293;28;20208;-72
2023/04/19 12:29:54;;;;;;;4.80;2.13;;;11.00;99.90;;;;;;5076683;28;20245;-72
2023/04/19 12:32:21;;;;;;;5.90;2.00;;;11.00;99.90;;;;;;5083710;28;20204;-72
2023/04/19 12:34:52;;;;;;;3.80;2.17;;;11.00;99.90;;;;;;5089090;28;20294;-72
2023/04/19 12:37:19;;;;;;;10.03;2.47;;;11.10;99.90;;;;;;5083061;28;20636;-72
2023/04/19 12:39:46;;;;;;;5.70;2.40;;;11.10;99.90;;;;;;5082626;28;20674;-72
2023/04/19 12:42:15;;;;;;;5.23;2.13;;;11.10;99.90;;;;;;5065493;28;20250;-72
2023/04/19 12:44:43;;;;;;;4.70;2.30;;;11.20;99.90;;;;;;5076473;28;20195;-72
2023/04/19 12:47:11;;;;;;;5.43;2.40;;;11.20;99.70;;;;;;5074756;28;20236;-72
2023/04/19 12:49:38;;;;;;;2.80;1.77;;;11.30;99.70;;;;;;5088006;28;20195;-72
2023/04/19 12:52:07;;;;;;;5.77;1.90;;;11.40;99.70;;;;;;5083062;28;20639;-73
2023/04/19 12:54:34;;;;;;;8.00;2.90;;;11.50;99.70;;;;;;5065456;28;20279;-72
2023/04/19 12:57:04;;;;;;;8.53;2.93;;;11.60;99.50;;;;;;5087038;28;20203;-72
2023/04/19 12:59:33;;;;;;;3.20;2.17;;;11.70;99.30;;;;;;5050994;28;20195;-71
2023/04/19 13:02:00;;;;;;;2.87;2.13;;;11.80;99.10;;;;;;5071878;28;20216;-72